Time;durP1;ratioP1;P1;durP2;ratioP2;P2;SDS_P1;SDS_P2;PMS_P1;PMS_P2;Temp;Humidity;BMP_temperature;BMP_pressure;BME280_temperature;BME280_humidity;BME280_pressure;Samples;Min_cycle;Max_cycle;Signal;HPM_P1;HPM_P2
2021/01/15 00:01:23;;;;;;;5.47;4.00;;;;;;;1.22;70.34;98939.59;4979334;28;20225;-84
2021/01/15 00:03:53;;;;;;;6.65;3.90;;;;;;;1.22;69.92;98932.47;4984516;28;20254;-84
2021/01/15 00:06:24;;;;;;;5.20;4.15;;;;;;;1.28;69.52;98936.75;4976019;28;20601;-82
2021/01/15 00:08:51;;;;;;;8.93;4.85;;;;;;;1.31;69.82;98937.50;4982888;28;20234;-81
2021/01/15 00:11:21;;;;;;;7.18;4.85;;;;;;;1.21;70.32;98944.00;4995985;28;20207;-80
2021/01/15 00:13:48;;;;;;;6.88;4.30;;;;;;;1.18;69.85;98938.81;5011857;28;20693;-82
2021/01/15 00:16:22;;;;;;;5.03;3.60;;;;;;;1.15;69.67;98948.59;4977166;28;20230;-83
2021/01/15 00:18:50;;;;;;;6.05;4.07;;;;;;;1.11;69.45;98947.84;4980927;28;20229;-82
2021/01/15 00:21:28;;;;;;;5.47;4.03;;;;;;;1.06;69.54;98955.06;4973091;28;20254;-82
2021/01/15 00:23:56;;;;;;;5.22;4.45;;;;;;;1.06;69.51;98954.19;4976503;28;20287;-83
2021/01/15 00:26:28;;;;;;;6.32;4.80;;;;;;;0.98;70.08;98956.22;5008385;28;20293;-84
2021/01/15 00:28:55;;;;;;;4.68;4.18;;;;;;;0.85;71.13;98953.06;4989545;28;20313;-84
2021/01/15 00:31:31;;;;;;;7.18;4.38;;;;;;;0.86;71.27;98952.16;4976546;28;20230;-83
2021/01/15 00:34:02;;;;;;;4.90;4.40;;;;;;;0.81;71.31;98953.19;4997627;28;20223;-84
2021/01/15 00:36:28;;;;;;;4.75;3.95;;;;;;;0.70;71.91;98964.09;4977680;28;20787;-84
2021/01/15 00:38:54;;;;;;;8.40;4.03;;;;;;;0.64;72.07;98959.00;4973254;28;20235;-83
2021/01/15 00:41:21;;;;;;;6.75;4.82;;;;;;;0.56;72.59;98961.00;5002990;28;20218;-81
2021/01/15 00:43:58;;;;;;;8.32;4.85;;;;;;;0.49;72.88;98964.72;4991885;28;20202;-83
2021/01/15 00:46:31;;;;;;;7.50;4.65;;;;;;;0.49;72.90;98971.78;4988381;28;20226;-83
2021/01/15 00:49:05;;;;;;;5.75;4.18;;;;;;;0.41;73.06;98972.00;4989113;28;20226;-84
2021/01/15 00:51:34;;;;;;;5.90;4.72;;;;;;;0.34;73.15;98977.50;4997940;28;20211;-81
2021/01/15 00:54:01;;;;;;;5.93;4.30;;;;;;;0.29;73.02;98980.28;5006870;28;20213;-80
2021/01/15 00:56:29;;;;;;;8.80;4.68;;;;;;;0.29;73.16;98975.00;4993985;28;20200;-83
2021/01/15 00:58:56;;;;;;;6.95;4.53;;;;;;;0.33;72.72;98971.34;5013104;28;20198;-81
2021/01/15 01:01:31;;;;;;;5.50;4.70;;;;;;;0.37;73.01;98975.66;4995701;28;20286;-83
2021/01/15 01:04:00;;;;;;;6.10;4.40;;;;;;;0.31;72.81;98973.16;5021138;28;20233;-82
2021/01/15 01:06:26;;;;;;;6.70;4.93;;;;;;;0.29;72.94;98982.94;4999412;28;20663;-82
2021/01/15 01:08:53;;;;;;;7.45;4.60;;;;;;;0.27;73.20;98987.38;5017855;28;20214;-81
2021/01/15 01:11:24;;;;;;;5.22;4.25;;;;;;;0.19;73.42;98985.84;5018449;28;20283;-81
2021/01/15 01:13:56;;;;;;;4.97;4.47;;;;;;;0.21;73.19;98987.53;4997887;28;20198;-81
2021/01/15 01:16:24;;;;;;;4.90;4.20;;;;;;;0.17;73.26;98992.94;4989506;28;20231;-82
2021/01/15 01:18:52;;;;;;;5.53;4.53;;;;;;;0.13;73.00;98991.31;4976266;28;20222;-84
2021/01/15 01:21:19;;;;;;;7.10;4.35;;;;;;;0.17;73.29;98985.91;5014390;28;20290;-82
2021/01/15 01:23:45;;;;;;;6.63;4.45;;;;;;;0.10;73.67;98994.03;5004120;28;20234;-83
2021/01/15 01:26:13;;;;;;;7.05;4.40;;;;;;;0.04;73.58;98994.19;4980614;28;20214;-82
2021/01/15 01:28:42;;;;;;;5.15;4.60;;;;;;;0.02;73.94;98990.72;5014439;28;20218;-81
2021/01/15 01:31:13;;;;;;;5.05;4.10;;;;;;;0.01;73.54;98999.56;5002510;28;20215;-81
2021/01/15 01:33:39;;;;;;;6.45;5.57;;;;;;;0.02;73.49;99012.72;4997855;28;20254;-81
2021/01/15 01:36:06;;;;;;;5.53;4.40;;;;;;;0.00;73.63;99014.53;5011942;28;20242;-82
2021/01/15 01:38:34;;;;;;;5.68;4.95;;;;;;;0.00;73.46;99014.53;4994686;28;20199;-82
2021/01/15 01:41:01;;;;;;;10.07;5.25;;;;;;;0.02;73.60;99023.28;5007978;28;20203;-82
2021/01/15 01:43:27;;;;;;;6.40;4.60;;;;;;;0.05;73.24;99019.69;5020099;28;20215;-83
2021/01/15 01:45:55;;;;;;;4.80;4.20;;;;;;;0.04;73.06;99023.25;5001070;28;20211;-82
2021/01/15 01:48:22;;;;;;;6.28;4.78;;;;;;;0.07;72.85;99021.41;4990505;28;20249;-83
2021/01/15 01:50:49;;;;;;;5.43;4.20;;;;;;;0.02;73.02;99023.28;4994661;28;20226;-82
2021/01/15 01:53:18;;;;;;;5.57;4.60;;;;;;;0.03;72.94;99026.81;5004130;28;20202;-80
2021/01/15 01:55:46;;;;;;;7.00;4.72;;;;;;;0.02;72.68;99030.38;5019421;28;20313;-80
2021/01/15 01:58:13;;;;;;;5.25;4.75;;;;;;;0.13;72.80;99029.19;5016529;28;20234;-83
2021/01/15 02:00:40;;;;;;;6.97;5.30;;;;;;;0.05;72.63;99028.50;5001237;28;20227;-82
2021/01/15 02:03:15;;;;;;;6.25;4.75;;;;;;;0.03;72.62;99035.63;4984463;28;20266;-83
2021/01/15 02:05:42;;;;;;;6.30;5.03;;;;;;;-0.06;72.80;99035.84;4995495;28;20310;-81
2021/01/15 02:08:09;;;;;;;5.47;4.50;;;;;;;-0.02;72.91;99032.22;4990475;28;20254;-82
2021/01/15 02:10:45;;;;;;;6.88;4.97;;;;;;;0.00;72.40;99030.41;4976609;28;20333;-84
2021/01/15 02:13:36;;;;;;;6.82;4.25;;;;;;;-0.10;72.92;99041.25;4990067;28;20221;-84
2021/01/15 02:16:06;;;;;;;5.75;4.68;;;;;;;-0.05;73.04;99042.84;4989835;28;20230;-83
2021/01/15 02:18:37;;;;;;;6.57;4.97;;;;;;;-0.11;73.63;99040.34;5006965;28;20229;-84
2021/01/15 02:21:41;;;;;;;6.50;5.00;;;;;;;-0.09;72.96;99031.56;4972659;28;20253;-83
2021/01/15 02:24:27;;;;;;;5.72;4.18;;;;;;;-0.02;73.10;99041.91;4988887;28;20253;-83
2021/01/15 02:27:15;;;;;;;5.15;4.55;;;;;;;-0.13;72.68;99034.25;4988569;28;20822;-84
2021/01/15 02:30:05;;;;;;;7.38;4.88;;;;;;;-0.12;72.50;99046.56;4996226;28;20238;-83
2021/01/15 02:32:55;;;;;;;7.50;4.95;;;;;;;-0.13;72.67;99032.53;4982968;28;20864;-82
2021/01/15 02:35:36;;;;;;;7.50;5.07;;;;;;;-0.15;72.51;99039.63;4973055;28;20199;-81
2021/01/15 02:38:05;;;;;;;6.78;4.57;;;;;;;-0.16;72.91;99041.38;4988967;28;20237;-82
2021/01/15 02:40:49;;;;;;;6.43;4.55;;;;;;;-0.19;72.37;99043.25;4973095;28;20234;-83
2021/01/15 02:43:17;;;;;;;6.28;5.00;;;;;;;-0.21;72.42;99034.50;5001661;28;20575;-82
2021/01/15 02:45:44;;;;;;;7.53;5.43;;;;;;;-0.21;72.20;99051.19;4986833;28;20223;-81
2021/01/15 02:48:15;;;;;;;6.95;5.18;;;;;;;-0.19;72.08;99059.09;5009728;28;20207;-82
2021/01/15 02:50:46;;;;;;;8.30;5.28;;;;;;;-0.24;72.13;99056.56;5002330;28;20211;-81
2021/01/15 02:53:15;;;;;;;6.38;4.78;;;;;;;-0.30;72.36;99067.28;4989711;28;20180;-81
2021/01/15 02:55:42;;;;;;;6.53;5.20;;;;;;;-0.26;71.72;99060.16;4999734;28;20269;-82
2021/01/15 02:58:09;;;;;;;7.60;5.65;;;;;;;-0.30;72.38;99066.41;4992775;28;20222;-83
2021/01/15 03:00:35;;;;;;;7.90;5.80;;;;;;;-0.26;72.25;99070.72;4993843;28;20457;-83
2021/01/15 03:03:13;;;;;;;12.05;5.40;;;;;;;-0.30;72.04;99076.97;4990625;28;20341;-83
2021/01/15 03:05:43;;;;;;;7.80;5.68;;;;;;;-0.32;72.19;99082.31;5001487;28;20261;-82
2021/01/15 03:08:12;;;;;;;7.88;5.07;;;;;;;-0.34;71.96;99085.88;4993062;28;20290;-84
2021/01/15 03:10:39;;;;;;;8.23;5.60;;;;;;;-0.35;71.98;99084.13;4989718;28;20314;-83
2021/01/15 03:13:06;;;;;;;10.20;5.43;;;;;;;-0.32;72.19;99094.63;4988210;28;20294;-81
2021/01/15 03:15:36;;;;;;;7.43;5.80;;;;;;;-0.31;72.21;99091.09;4987727;28;20226;-82
2021/01/15 03:18:05;;;;;;;7.00;5.65;;;;;;;-0.28;71.55;99096.31;4988501;28;20214;-82
2021/01/15 03:20:32;;;;;;;7.43;5.93;;;;;;;-0.27;71.61;99096.25;4977914;28;20305;-82
2021/01/15 03:22:58;;;;;;;6.20;4.82;;;;;;;-0.27;71.50;99101.53;5018584;28;20207;-83
2021/01/15 03:25:28;;;;;;;8.80;5.68;;;;;;;-0.31;71.60;99104.28;5003826;28;20233;-82
2021/01/15 03:27:59;;;;;;;7.32;5.97;;;;;;;-0.34;71.61;99107.88;4978616;28;20199;-82
2021/01/15 03:30:30;;;;;;;8.13;5.50;;;;;;;-0.38;71.76;99110.63;4985587;28;20273;-85
2021/01/15 03:32:59;;;;;;;10.70;5.72;;;;;;;-0.35;71.80;99115.81;5001440;28;20222;-80
2021/01/15 03:35:27;;;;;;;6.07;5.28;;;;;;;-0.30;71.62;99119.22;5006189;28;20258;-83
2021/01/15 03:38:02;;;;;;;8.48;5.80;;;;;;;-0.36;71.66;99124.66;5002290;28;20195;-82
2021/01/15 03:40:40;;;;;;;8.57;5.63;;;;;;;-0.42;72.00;99130.94;5014107;28;20245;-82
2021/01/15 03:43:18;;;;;;;7.63;5.70;;;;;;;-0.41;72.13;99140.59;4987247;28;20206;-83
2021/01/15 03:45:48;;;;;;;10.55;6.38;;;;;;;-0.42;72.09;99140.63;5000798;28;20242;-82
2021/01/15 03:48:17;;;;;;;10.23;6.03;;;;;;;-0.44;72.19;99147.72;4995340;28;20352;-83
2021/01/15 03:50:44;;;;;;;8.65;5.95;;;;;;;-0.47;72.19;99146.03;5001869;28;20251;-81
2021/01/15 03:53:12;;;;;;;7.43;5.72;;;;;;;-0.47;72.39;99153.09;5006964;28;20218;-81
2021/01/15 03:55:39;;;;;;;8.13;5.70;;;;;;;-0.48;72.45;99152.22;5001960;28;20219;-82
2021/01/15 03:58:05;;;;;;;7.00;5.50;;;;;;;-0.48;72.44;99143.41;5002041;28;20290;-80
2021/01/15 04:00:31;;;;;;;15.38;5.85;;;;;;;-0.45;72.30;99146.00;5011055;28;20227;-82
2021/01/15 04:02:57;;;;;;;6.32;5.03;;;;;;;-0.52;72.22;99144.41;5009807;28;20334;-82
2021/01/15 04:05:23;;;;;;;7.82;5.40;;;;;;;-0.52;72.48;99142.59;5006800;28;20254;-83
2021/01/15 04:07:50;;;;;;;7.90;6.30;;;;;;;-0.53;72.63;99147.94;4997706;28;20207;-83
2021/01/15 04:10:19;;;;;;;8.20;5.55;;;;;;;-0.53;72.49;99148.78;4996102;28;20241;-82
2021/01/15 04:12:46;;;;;;;8.90;5.82;;;;;;;-0.54;72.64;99154.09;4992932;28;20243;-83
2021/01/15 04:15:15;;;;;;;7.45;5.50;;;;;;;-0.59;72.87;99148.91;4985025;28;20277;-82
2021/01/15 04:17:42;;;;;;;8.35;5.60;;;;;;;-0.63;72.86;99157.81;5010629;28;20226;-81
2021/01/15 04:20:14;;;;;;;9.88;6.20;;;;;;;-0.66;72.91;99159.66;5012937;28;20253;-82
2021/01/15 04:22:45;;;;;;;10.20;5.20;;;;;;;-0.72;73.21;99159.78;5000832;28;20225;-81
2021/01/15 04:25:13;;;;;;;7.15;5.80;;;;;;;-0.77;73.31;99166.91;5017267;28;20231;-81
2021/01/15 04:27:40;;;;;;;8.75;6.53;;;;;;;-0.75;73.42;99168.63;4994120;28;20247;-82
2021/01/15 04:30:08;;;;;;;6.45;5.40;;;;;;;-0.72;73.23;99173.00;4983204;28;20776;-81
2021/01/15 04:32:35;;;;;;;7.28;5.40;;;;;;;-0.71;73.24;99172.06;4975146;28;20250;-83
2021/01/15 04:35:02;;;;;;;6.13;5.53;;;;;;;-0.76;72.81;99171.28;5009173;28;20209;-84
2021/01/15 04:37:29;;;;;;;8.63;6.30;;;;;;;-0.77;73.19;99174.84;4989066;28;20318;-83
2021/01/15 04:39:55;;;;;;;6.60;5.18;;;;;;;-0.78;72.48;99173.09;4976915;28;20757;-83
2021/01/15 04:42:24;;;;;;;7.05;5.55;;;;;;;-0.75;72.40;99183.59;4975911;28;20222;-82
2021/01/15 04:44:51;;;;;;;6.05;5.22;;;;;;;-0.76;72.68;99187.13;4991635;28;20226;-83
2021/01/15 04:47:18;;;;;;;7.07;5.47;;;;;;;-0.78;72.61;99183.66;4988248;28;20259;-80
2021/01/15 04:49:46;;;;;;;10.00;6.38;;;;;;;-0.79;72.65;99185.41;4990721;28;20276;-81
2021/01/15 04:52:13;;;;;;;6.93;5.22;;;;;;;-0.76;72.39;99189.78;5006930;28;20236;-82
2021/01/15 04:54:42;;;;;;;7.70;4.55;;;;;;;-0.81;72.65;99189.00;4994124;28;20617;-83
2021/01/15 04:57:10;;;;;;;6.90;5.18;;;;;;;-0.82;72.78;99190.78;5000499;28;20234;-81
2021/01/15 04:59:43;;;;;;;5.70;5.10;;;;;;;-0.83;72.76;99190.78;4989012;28;20272;-83
2021/01/15 05:02:11;;;;;;;7.72;4.80;;;;;;;-0.86;73.23;99194.38;5004776;28;20201;-81
2021/01/15 05:04:39;;;;;;;7.45;5.05;;;;;;;-0.88;73.06;99197.94;5006549;28;20245;-83
2021/01/15 05:07:07;;;;;;;7.63;4.70;;;;;;;-0.81;72.99;99194.28;4981199;28;20261;-82
2021/01/15 05:09:41;;;;;;;7.70;5.20;;;;;;;-0.74;73.04;99202.03;5002742;28;20241;-83
2021/01/15 05:12:12;;;;;;;7.35;4.97;;;;;;;-0.93;73.37;99199.78;4989806;28;20320;-84
2021/01/15 05:14:39;;;;;;;5.82;4.78;;;;;;;-0.98;73.79;99210.44;4987405;28;20346;-84
2021/01/15 05:17:07;;;;;;;9.90;5.60;;;;;;;-0.98;73.59;99202.50;5009296;28;20225;-82
2021/01/15 05:19:38;;;;;;;7.72;5.15;;;;;;;-1.03;73.84;99209.63;4976031;28;20234;-81
2021/01/15 05:22:06;;;;;;;7.53;4.72;;;;;;;-1.03;74.02;99214.06;4994601;28;20229;-81
2021/01/15 05:24:36;;;;;;;6.95;4.68;;;;;;;-1.03;74.19;99216.69;5002188;28;20234;-81
2021/01/15 05:30:11;;;;;;;8.88;5.03;;;;;;;-1.06;74.29;99222.00;5002015;28;20234;-83
2021/01/15 05:32:40;;;;;;;8.60;4.95;;;;;;;-1.14;74.33;99218.66;5002987;28;22011;-81
2021/01/15 05:35:08;;;;;;;6.43;5.03;;;;;;;-1.15;74.59;99232.75;4991404;28;20250;-82
2021/01/15 05:37:34;;;;;;;7.22;4.82;;;;;;;-0.97;73.93;99237.69;5005602;28;20627;-81
2021/01/15 05:40:02;;;;;;;6.63;5.18;;;;;;;-1.13;74.20;99246.78;5005177;28;20250;-83
2021/01/15 05:42:29;;;;;;;9.63;5.45;;;;;;;-1.17;74.41;99247.75;4993448;28;20238;-83
2021/01/15 05:45:15;;;;;;;7.90;5.85;;;;;;;-1.05;74.41;99258.94;4994015;28;20238;-80
2021/01/15 05:47:46;;;;;;;11.80;5.68;;;;;;;-1.11;74.31;99258.19;5015822;28;20222;-79
2021/01/15 05:50:13;;;;;;;7.85;5.43;;;;;;;-1.13;74.15;99266.13;5030536;28;20219;-80
2021/01/15 05:52:57;;;;;;;11.50;6.90;;;;;;;-1.21;74.63;99267.16;4995728;28;20210;-80
2021/01/15 05:55:24;;;;;;;9.15;5.90;;;;;;;-1.24;75.01;99272.50;5002546;28;20215;-81
2021/01/15 05:57:51;;;;;;;9.50;6.03;;;;;;;-1.18;74.77;99277.63;4992540;28;20612;-83
2021/01/15 06:00:30;;;;;;;10.63;7.80;;;;;;;-1.18;74.87;99280.25;4993232;28;20226;-82
2021/01/15 06:02:56;;;;;;;10.50;5.63;;;;;;;-1.21;74.81;99277.69;5008699;28;20229;-81
2021/01/15 06:05:24;;;;;;;7.20;6.32;;;;;;;-1.23;74.71;99284.78;5010168;28;20214;-80
2021/01/15 06:07:58;;;;;;;8.05;5.53;;;;;;;-1.23;74.74;99290.03;4993182;28;20187;-82
2021/01/15 06:10:26;;;;;;;9.63;5.65;;;;;;;-1.27;75.31;99293.63;5024567;28;20270;-81
2021/01/15 06:12:53;;;;;;;8.80;6.10;;;;;;;-1.25;75.42;99297.97;5003258;28;20219;-80
2021/01/15 06:15:19;;;;;;;9.23;6.15;;;;;;;-1.21;75.00;99298.78;5008611;28;20211;-82
2021/01/15 06:17:51;;;;;;;7.22;5.70;;;;;;;-1.25;75.26;99297.97;5006615;28;20222;-81
2021/01/15 06:20:21;;;;;;;9.27;6.20;;;;;;;-1.27;75.36;99305.06;5008930;28;20228;-82
2021/01/15 06:22:49;;;;;;;9.02;6.57;;;;;;;-1.23;75.34;99303.25;5006129;28;20246;-81
2021/01/15 06:25:36;;;;;;;8.27;5.85;;;;;;;-1.22;75.29;99299.69;5005444;28;20213;-80
2021/01/15 06:28:09;;;;;;;14.30;6.63;;;;;;;-1.22;75.23;99307.63;5018966;28;20218;-82
2021/01/15 06:30:37;;;;;;;9.60;5.68;;;;;;;-1.15;74.79;99309.25;5001526;28;20265;-81
2021/01/15 06:33:08;;;;;;;10.32;6.35;;;;;;;-1.29;75.23;99316.53;4974530;28;20317;-84
2021/01/15 06:35:37;;;;;;;8.80;5.57;;;;;;;-1.28;75.60;99324.41;4990880;28;20274;-83
2021/01/15 06:38:04;;;;;;;6.50;5.20;;;;;;;-1.25;75.36;99315.56;4997691;28;20199;-84
2021/01/15 06:40:34;;;;;;;8.00;5.45;;;;;;;-1.32;75.56;99317.44;4990892;28;20211;-83
2021/01/15 06:43:04;;;;;;;8.73;5.55;;;;;;;-1.16;75.08;99325.97;4996541;28;20274;-81
2021/01/15 06:45:41;;;;;;;8.95;6.75;;;;;;;-1.23;75.47;99325.19;5004905;28;20218;-79
2021/01/15 06:48:13;;;;;;;15.73;7.75;;;;;;;-1.34;75.96;99328.91;5004842;28;20217;-80
2021/01/15 06:50:41;;;;;;;7.00;6.10;;;;;;;-1.31;75.78;99340.28;5002689;28;20257;-81
2021/01/15 06:53:18;;;;;;;9.60;5.80;;;;;;;-1.32;76.06;99338.53;5005883;28;20191;-82
2021/01/15 06:55:50;;;;;;;8.35;6.05;;;;;;;-1.32;76.11;99343.81;4999177;28;20230;-81
2021/01/15 06:58:37;;;;;;;8.07;6.22;;;;;;;-1.37;76.21;99353.56;5000800;28;20238;-82
2021/01/15 07:01:17;;;;;;;8.07;5.97;;;;;;;-1.35;76.09;99356.19;4990485;28;20222;-82
2021/01/15 07:07:33;;;;;;;8.93;6.10;;;;;;;-1.29;75.83;99364.00;5006572;28;20222;-84
2021/01/15 07:10:00;;;;;;;10.48;6.47;;;;;;;-1.28;75.88;99368.38;4995647;28;21779;-82
2021/01/15 07:12:27;;;;;;;10.45;7.07;;;;;;;-1.30;76.05;99370.19;5006113;28;20312;-84
2021/01/15 07:14:58;;;;;;;9.93;6.32;;;;;;;-1.38;76.08;99377.31;4998984;28;20970;-82
2021/01/15 07:17:36;;;;;;;11.75;6.55;;;;;;;-1.38;76.52;99379.94;5021679;28;20178;-82
2021/01/15 07:20:12;;;;;;;11.95;7.43;;;;;;;-1.27;76.28;99380.66;4994632;28;20218;-81
2021/01/15 07:22:48;;;;;;;10.00;6.60;;;;;;;-1.20;76.12;99385.84;5008600;28;20210;-82
2021/01/15 07:25:15;;;;;;;12.50;6.30;;;;;;;-1.16;76.00;99397.22;4997689;28;20219;-84
2021/01/15 07:27:42;;;;;;;11.00;8.18;;;;;;;-1.11;76.01;99390.09;4992804;28;20227;-82
2021/01/15 07:30:15;;;;;;;14.10;9.45;;;;;;;-1.04;75.61;99392.59;4992377;28;20224;-81
2021/01/15 07:32:46;;;;;;;10.98;7.15;;;;;;;-1.00;75.88;99389.03;5011733;28;20226;-82
2021/01/15 07:35:15;;;;;;;15.07;10.20;;;;;;;-0.98;75.46;99396.94;4994435;28;20204;-83
2021/01/15 07:37:42;;;;;;;31.77;17.27;;;;;;;-0.98;75.37;99402.22;4996393;28;20238;-82
2021/01/15 07:40:20;;;;;;;14.95;9.30;;;;;;;-0.99;75.46;99405.72;4992025;28;20227;-81
2021/01/15 07:42:51;;;;;;;16.17;10.20;;;;;;;-0.96;75.55;99411.84;5005732;28;20225;-85
2021/01/15 07:45:24;;;;;;;11.35;8.55;;;;;;;-0.95;75.29;99416.22;4983026;28;20234;-85
2021/01/15 07:47:53;;;;;;;12.63;9.02;;;;;;;-0.91;75.09;99419.69;5003433;28;20755;-84
2021/01/15 07:50:57;;;;;;;12.90;9.00;;;;;;;-0.91;75.16;99430.25;4990166;28;20207;-82
2021/01/15 07:53:43;;;;;;;16.40;8.93;;;;;;;-0.91;75.17;99431.09;4978072;28;20237;-82
2021/01/15 07:56:10;;;;;;;24.20;14.80;;;;;;;-0.92;75.23;99439.91;4983556;28;20191;-82
2021/01/15 07:58:39;;;;;;;24.35;13.75;;;;;;;-0.94;75.41;99440.84;4996823;28;20253;-83
2021/01/15 08:01:19;;;;;;;19.17;13.20;;;;;;;-0.89;75.44;99445.16;4987710;28;20219;-81
2021/01/15 08:03:54;;;;;;;17.20;11.00;;;;;;;-0.86;75.12;99458.31;4968266;28;20222;-81
2021/01/15 08:06:21;;;;;;;11.57;8.63;;;;;;;-0.93;75.27;99463.69;5004671;28;20258;-84
2021/01/15 08:09:04;;;;;;;13.25;9.23;;;;;;;-0.92;75.11;99463.66;4996130;28;20246;-84
2021/01/15 08:11:33;;;;;;;17.33;10.85;;;;;;;-0.90;75.05;99469.78;4961937;28;20232;-83
2021/01/15 08:14:13;;;;;;;27.70;14.13;;;;;;;-0.93;75.31;99469.84;4982965;28;20179;-82
2021/01/15 08:16:47;;;;;;;20.85;14.30;;;;;;;-0.92;75.55;99476.00;4977575;28;20291;-83
2021/01/15 08:19:41;;;;;;;30.65;19.80;;;;;;;-0.93;75.62;99474.25;4978067;28;20242;-82
2021/01/15 08:22:12;;;;;;;22.50;13.85;;;;;;;-0.92;75.58;99481.28;4998709;28;20734;-82
2021/01/15 08:24:46;;;;;;;14.50;10.02;;;;;;;-0.98;75.89;99484.03;4980231;28;20253;-81
2021/01/15 08:27:23;;;;;;;16.65;10.45;;;;;;;-1.01;76.23;99482.28;4990939;28;20301;-82
2021/01/15 08:30:06;;;;;;;13.35;8.48;;;;;;;-0.88;76.17;99488.25;4985334;28;20259;-80
2021/01/15 08:32:42;;;;;;;10.38;8.05;;;;;;;-0.95;76.30;99489.25;5019638;28;20214;-81
2021/01/15 08:35:21;;;;;;;12.68;8.88;;;;;;;-0.92;76.41;99491.84;5002063;28;20198;-81
2021/01/15 08:38:01;;;;;;;13.68;8.70;;;;;;;-0.91;76.40;99502.38;5022425;28;20226;-82
2021/01/15 08:41:02;;;;;;;;;;;;;;;;;;;;;
2021/01/15 08:43:50;;;;;;;;;;;;;;;;;;;;;
2021/01/15 08:47:04;;;;;;;13.27;9.40;;;;;;;-0.69;76.44;99521.41;4911454;29;20229;-82
2021/01/15 08:50:11;;;;;;;10.80;8.90;;;;;;;-0.66;76.45;99521.38;4904984;28;20235;-83
2021/01/15 08:52:42;;;;;;;16.30;10.10;;;;;;;-0.61;76.16;99523.03;4915844;29;20292;-80
2021/01/15 08:55:27;;;;;;;14.18;9.18;;;;;;;-0.49;75.54;99527.25;4913975;29;20231;-83
2021/01/15 08:58:13;;;;;;;10.70;7.65;;;;;;;-0.50;75.44;99525.50;4911249;29;20221;-82
2021/01/15 09:00:40;;;;;;;9.77;7.80;;;;;;;-0.39;75.18;99540.28;4905031;29;20229;-84
2021/01/15 09:03:10;;;;;;;10.52;7.07;;;;;;;-0.26;74.71;99533.06;4901436;29;20267;-83
2021/01/15 09:05:39;;;;;;;15.10;9.02;;;;;;;-0.22;74.69;99540.91;4885151;29;20205;-84
2021/01/15 09:08:13;;;;;;;16.30;8.35;;;;;;;-0.15;74.78;99546.97;4925875;29;20198;-82
2021/01/15 09:10:46;;;;;;;11.93;8.55;;;;;;;-0.08;74.53;99544.19;4884095;29;20286;-83
2021/01/15 09:13:13;;;;;;;12.95;7.85;;;;;;;-0.05;74.56;99550.28;4902092;29;20269;-84
2021/01/15 09:15:39;;;;;;;19.45;10.55;;;;;;;0.03;74.30;99548.41;4908646;28;20231;-83
2021/01/15 09:18:06;;;;;;;17.02;11.23;;;;;;;0.12;74.15;99548.25;4901316;28;20297;-82
2021/01/15 09:20:33;;;;;;;12.63;8.70;;;;;;;0.20;73.24;99550.75;4890992;29;20280;-81
2021/01/15 09:22:59;;;;;;;12.40;8.32;;;;;;;0.24;72.73;99563.88;4987817;28;20214;-81
2021/01/15 09:25:26;;;;;;;12.18;8.68;;;;;;;0.29;72.96;99562.03;5055635;23;20218;-81
2021/01/15 09:27:58;;;;;;;12.27;7.90;;;;;;;0.46;72.41;99554.66;4914270;28;20243;-81
2021/01/15 09:30:47;;;;;;;11.70;8.32;;;;;;;0.46;71.90;99565.22;4934034;28;20232;-82
2021/01/15 09:33:22;;;;;;;12.32;8.40;;;;;;;0.49;71.59;99569.59;4994676;28;20840;-81
2021/01/15 09:35:52;;;;;;;15.32;8.48;;;;;;;0.56;71.45;99569.47;4983557;28;20222;-83
2021/01/15 09:38:18;;;;;;;13.05;8.05;;;;;;;0.63;71.50;99578.13;5002820;28;20789;-80
2021/01/15 09:40:45;;;;;;;9.45;7.00;;;;;;;0.74;70.74;99574.41;5008386;28;20218;-83
2021/01/15 09:43:12;;;;;;;10.10;7.65;;;;;;;0.76;69.75;99577.88;4968410;28;20235;-83
2021/01/15 09:45:40;;;;;;;14.23;8.65;;;;;;;0.83;70.03;99584.78;4987538;28;20222;-85
2021/01/15 09:48:14;;;;;;;12.15;7.53;;;;;;;0.88;68.95;99579.41;4964787;28;20210;-90
2021/01/15 10:02:43;;;;;;;9.15;6.85;;;;;;;1.27;67.65;99595.34;4876538;29;20218;-81
2021/01/15 10:05:13;;;;;;;12.13;7.78;;;;;;;1.34;67.01;99590.78;4893794;29;20207;-80
2021/01/15 10:08:06;;;;;;;10.88;6.70;;;;;;;1.38;66.82;99597.75;4824205;29;20290;-82
2021/01/15 10:10:36;;;;;;;15.15;11.88;;;;;;;1.47;66.57;99597.56;4868360;29;20318;-83
2021/01/15 10:13:03;;;;;;;16.13;9.35;;;;;;;1.63;65.98;99599.84;4923705;23;20792;-82
2021/01/15 10:15:32;;;;;;;13.70;10.13;;;;;;;1.74;66.16;99604.91;4869918;29;20234;-79
2021/01/15 10:17:58;;;;;;;11.50;8.23;;;;;;;1.76;65.34;99609.28;4890835;29;20229;-81
2021/01/15 10:20:26;;;;;;;10.35;7.05;;;;;;;1.80;64.46;99616.22;4900337;29;20264;-80
2021/01/15 10:22:52;;;;;;;11.80;7.03;;;;;;;1.76;64.41;99619.88;4925029;29;20206;-81
2021/01/15 10:25:22;;;;;;;46.80;23.98;;;;;;;1.81;64.27;99620.63;4902386;29;20265;-82
2021/01/15 10:27:48;;;;;;;8.82;6.80;;;;;;;1.82;63.31;99625.03;4904175;29;20295;-81
2021/01/15 10:30:15;;;;;;;9.60;7.60;;;;;;;1.88;63.23;99621.38;4902080;29;20227;-80
2021/01/15 10:32:46;;;;;;;9.75;6.70;;;;;;;1.83;62.83;99634.72;4896965;29;20300;-81
2021/01/15 10:35:14;;;;;;;10.63;7.20;;;;;;;1.94;62.37;99630.03;4910405;29;20220;-81
2021/01/15 10:37:40;;;;;;;14.55;7.95;;;;;;;1.92;63.28;99636.31;4894291;29;20224;-81
2021/01/15 10:40:08;;;;;;;13.27;9.10;;;;;;;2.00;63.64;99629.88;4891457;29;20226;-81
2021/01/15 10:42:42;;;;;;;13.25;7.50;;;;;;;2.09;63.47;99635.00;4901211;29;20222;-80
2021/01/15 10:45:11;;;;;;;12.18;7.82;;;;;;;2.10;63.23;99638.50;4886358;29;20323;-80
2021/01/15 10:47:41;;;;;;;8.75;6.45;;;;;;;2.08;61.90;99642.97;4885189;29;20241;-81
2021/01/15 10:50:14;;;;;;;11.23;7.75;;;;;;;2.13;62.15;99636.63;4884012;29;20297;-81
2021/01/15 10:52:40;;;;;;;10.95;7.63;;;;;;;2.17;62.14;99633.03;4879706;29;20231;-81
2021/01/15 10:55:07;;;;;;;11.27;8.07;;;;;;;2.22;61.53;99636.44;4879004;29;20241;-81
2021/01/15 10:57:33;;;;;;;11.43;8.02;;;;;;;2.25;60.53;99643.47;4878174;29;20226;-81
2021/01/15 10:59:59;;;;;;;10.27;7.13;;;;;;;2.27;60.47;99642.50;4859090;29;20231;-81
2021/01/15 11:02:25;;;;;;;12.10;6.70;;;;;;;2.29;59.93;99632.72;4875570;29;20214;-81
2021/01/15 11:04:51;;;;;;;9.50;6.60;;;;;;;2.21;60.22;99640.00;4892881;29;20226;-81
2021/01/15 11:07:18;;;;;;;9.80;6.40;;;;;;;2.29;59.91;99640.69;4860198;29;20230;-81
2021/01/15 11:09:44;;;;;;;10.38;6.93;;;;;;;2.33;59.60;99641.47;4860297;29;20230;-81
2021/01/15 11:12:10;;;;;;;12.73;8.18;;;;;;;2.37;59.56;99630.75;4891458;29;20227;-79
2021/01/15 11:14:36;;;;;;;11.45;6.60;;;;;;;2.39;59.33;99636.88;4864479;28;20322;-79
2021/01/15 11:17:07;;;;;;;13.27;7.25;;;;;;;2.48;59.83;99641.09;4913364;29;20216;-79
2021/01/15 11:19:33;;;;;;;12.40;6.97;;;;;;;2.54;58.91;99639.16;4878232;29;20254;-80
2021/01/15 11:21:59;;;;;;;11.63;6.95;;;;;;;2.78;58.64;99643.84;4881851;29;20229;-78
2021/01/15 11:24:25;;;;;;;12.25;7.82;;;;;;;3.41;57.00;99634.06;4883404;29;20234;-79
2021/01/15 11:26:51;;;;;;;11.95;6.60;;;;;;;3.57;55.49;99635.38;4866539;29;20409;-79
2021/01/15 11:29:18;;;;;;;10.43;6.85;;;;;;;3.96;54.75;99633.25;4878085;29;20213;-79
2021/01/15 11:31:44;;;;;;;9.57;6.30;;;;;;;3.92;54.57;99632.50;4897063;29;20202;-82
2021/01/15 11:34:11;;;;;;;11.05;6.72;;;;;;;3.74;54.79;99633.09;4902122;29;20255;-79
2021/01/15 11:36:38;;;;;;;9.27;6.53;;;;;;;3.43;54.86;99634.91;4880276;29;20230;-81
2021/01/15 11:39:10;;;;;;;10.50;6.75;;;;;;;3.26;55.54;99637.16;4895032;29;20226;-80
2021/01/15 11:41:37;;;;;;;9.60;6.60;;;;;;;3.20;56.04;99634.69;4895630;29;20222;-80
2021/01/15 11:44:07;;;;;;;11.90;7.50;;;;;;;3.27;56.43;99643.38;4866233;29;20223;-82
2021/01/15 11:46:33;;;;;;;10.00;7.70;;;;;;;3.24;56.24;99639.00;4881987;29;20265;-84
2021/01/15 11:49:00;;;;;;;9.40;6.72;;;;;;;3.27;56.43;99640.72;4893218;29;20234;-82
2021/01/15 11:51:27;;;;;;;9.90;7.07;;;;;;;3.30;55.03;99630.84;4895004;29;20235;-80
2021/01/15 11:53:55;;;;;;;9.45;6.40;;;;;;;3.22;55.36;99632.84;4880817;29;20261;-79
2021/01/15 11:56:22;;;;;;;8.65;7.05;;;;;;;3.23;56.23;99636.38;4876885;29;20202;-77
2021/01/15 11:58:48;;;;;;;9.57;7.38;;;;;;;3.28;56.14;99637.13;4887951;29;20235;-79
2021/01/15 12:01:15;;;;;;;12.05;6.97;;;;;;;3.29;56.33;99639.72;4878008;29;20256;-80
2021/01/15 12:03:41;;;;;;;10.63;6.97;;;;;;;3.45;56.21;99638.38;4887710;29;20233;-80
2021/01/15 12:06:08;;;;;;;12.13;6.78;;;;;;;3.43;55.31;99636.69;4894438;29;20305;-79
2021/01/15 12:08:34;;;;;;;9.80;6.20;;;;;;;3.39;54.32;99627.91;4896548;29;20223;-79
2021/01/15 12:11:05;;;;;;;10.75;6.15;;;;;;;3.40;54.41;99626.16;4899959;29;20203;-81
2021/01/15 12:13:32;;;;;;;10.05;6.80;;;;;;;3.46;54.52;99632.16;4887753;29;20241;-82